CDT,Max TemperatureF,Mean TemperatureF,Min TemperatureF,Max Dew PointF,MeanDew PointF,Min DewpointF,Max Humidity, Mean Humidity, Min Humidity, Max Sea Level PressureIn, Mean Sea Level PressureIn, Min Sea Level PressureIn, Max VisibilityMiles, Mean VisibilityMiles, Min VisibilityMiles, Max Wind SpeedMPH, Mean Wind SpeedMPH, Max Gust SpeedMPH,PrecipitationIn, CloudCover, Events, WindDirDegrees
2013-6-1,69,61,51,57,54,46,94,78,60,29.90,29.69,29.57,10,10,7,21,5,29,0.01,5,Rain,271
2013-6-2,64,55,46,46,42,36,82,64,34,30.08,30.02,29.90,10,10,10,16,10,28,0.00,4,,359
2013-6-3,69,56,44,48,44,39,93,61,37,30.09,30.04,29.97,10,10,10,14,3,17,0.00,1,,140
2013-6-4,60,56,53,52,50,45,94,79,55,30.09,30.05,30.01,10,10,7,21,10,28,0.32,8,Rain-Thunderstorm,138
2013-6-5,66,60,53,57,54,50,94,84,64,30.06,29.98,29.92,10,6,1,10,4,,0.03,8,Rain,111
2013-6-6,59,56,53,55,53,52,94,88,82,30.01,29.97,29.93,10,7,0,13,5,16,0.00,8,Fog-Rain,356
2013-6-7,66,60,53,55,52,50,94,81,64,30.04,29.99,29.94,10,9,4,8,3,,0.00,6,,10
2013-6-8,69,61,53,57,54,52,94,80,56,29.94,29.92,29.88,10,9,3,15,3,20,0.13,3,Rain,143
2013-6-9,73,65,57,63,57,52,88,79,65,29.90,29.78,29.74,10,9,3,23,15,32,0.18,6,Rain,120
2013-6-10,75,65,55,63,59,54,94,84,61,29.89,29.85,29.80,10,6,0,10,2,,0.00,6,Fog,289
2013-6-11,84,72,59,68,63,55,94,73,48,29.91,29.86,29.81,10,9,3,15,2,17,0.00,0,Rain,131
2013-6-12,78,72,66,70,65,63,88,80,69,29.91,29.79,29.69,10,10,5,31,10,36,0.27,5,Rain-Thunderstorm,49
2013-6-13,78,68,57,61,54,48,83,60,34,30.09,30.03,29.89,10,10,10,13,8,18,0.00,1,,5
2013-6-14,77,67,57,61,57,54,94,70,50,30.10,30.02,29.91,10,10,1,17,7,23,0.00,2,Rain-Thunderstorm,145
2013-6-15,77,70,64,66,63,59,94,81,61,29.98,29.91,29.84,10,9,5,22,8,32,0.24,4,Rain-Thunderstorm,201
2013-6-16,82,70,59,63,52,43,94,56,25,29.97,29.94,29.90,10,9,0,14,3,22,0.00,0,Fog,282
2013-6-17,82,72,62,57,52,45,77,50,26,29.98,29.94,29.91,10,10,7,15,5,22,0.00,1,,305
2013-6-18,75,67,59,59,57,54,88,70,47,30.08,30.04,29.98,10,10,7,16,4,22,0.18,3,Rain-Thunderstorm,90
2013-6-19,82,71,60,61,56,52,82,60,35,30.10,30.05,29.99,10,10,10,13,5,18,0.00,1,,156
2013-6-20,87,78,68,64,60,57,73,54,35,30.06,30.00,29.94,10,10,10,21,8,26,0.00,3,Rain,170
2013-6-21,84,74,64,72,65,61,94,74,57,30.00,29.93,29.85,10,10,7,22,11,33,0.20,4,Rain-Thunderstorm,164
2013-6-22,89,78,66,72,67,63,94,75,46,30.02,29.91,29.83,10,10,2,25,10,39,0.77,3,Rain-Thunderstorm,149
2013-6-23,80,74,68,68,66,63,88,77,61,29.94,29.86,29.76,10,10,5,22,12,29,0.19,3,Rain-Thunderstorm,184
2013-6-24,73,70,66,70,65,61,94,85,73,29.96,29.90,29.81,10,9,2,17,4,24,0.18,4,Rain-Thunderstorm,169
2013-6-25,84,75,66,73,68,63,94,81,66,29.86,29.81,29.74,10,10,7,13,7,,0.00,3,Rain-Thunderstorm,136
2013-6-26,86,78,71,73,68,61,94,77,45,29.86,29.75,29.70,10,9,5,17,5,25,0.02,3,Rain-Thunderstorm,217
2013-6-27,84,74,64,64,58,48,94,56,29,29.88,29.85,29.84,10,10,10,21,8,30,0.00,1,,292
2013-6-28,77,72,66,61,56,54,83,59,47,29.85,29.81,29.77,10,10,7,24,11,36,0.00,3,Rain-Thunderstorm,309
2013-6-29,73,66,60,61,58,54,94,78,56,29.96,29.84,29.71,10,10,2,22,9,31,0.70,5,Rain-Thunderstorm,357
2013-6-30,78,66,55,55,49,39,82,56,26,30.12,30.06,29.96,10,10,10,13,5,21,0.00,0,,20